createdAt,value
2018-12-31T00:00:22.000Z,1023.412
2018-12-31T00:10:22.000Z,1023.398
2018-12-31T00:20:21.000Z,1023.467
2018-12-31T00:30:21.000Z,1023.456
2018-12-31T00:40:21.000Z,1023.456
2018-12-31T00:50:22.000Z,1023.519
2018-12-31T01:10:22.000Z,1023.489
2018-12-31T01:20:22.000Z,1023.419
2018-12-31T01:30:22.000Z,1023.366
2018-12-31T01:40:22.000Z,1023.358
2018-12-31T01:50:22.000Z,1023.501
2018-12-31T02:00:22.000Z,1023.455
2018-12-31T02:10:22.000Z,1023.389
2018-12-31T02:20:22.000Z,1023.553
2018-12-31T02:30:22.000Z,1023.495
2018-12-31T02:40:22.000Z,1023.397
2018-12-31T02:50:22.000Z,1023.334
2018-12-31T03:00:22.000Z,1023.355
2018-12-31T03:10:22.000Z,1023.402
2018-12-31T03:20:22.000Z,1023.398
2018-12-31T03:30:22.000Z,1023.294
2018-12-31T03:40:22.000Z,1023.144
2018-12-31T03:50:23.000Z,1023.169
2018-12-31T04:00:23.000Z,1023.239
2018-12-31T04:10:22.000Z,1023.306
2018-12-31T04:20:22.000Z,1023.402
2018-12-31T04:30:22.000Z,1023.433
2018-12-31T04:40:22.000Z,1023.38
2018-12-31T04:50:22.000Z,1023.441
2018-12-31T05:00:22.000Z,1023.5
2018-12-31T05:10:22.000Z,1023.406
2018-12-31T05:20:22.000Z,1023.399
2018-12-31T05:30:22.000Z,1023.463
2018-12-31T05:40:22.000Z,1023.535
2018-12-31T05:50:22.000Z,1023.406
2018-12-31T06:00:22.000Z,1023.572
2018-12-31T06:10:22.000Z,1023.743
2018-12-31T06:20:22.000Z,1023.754
2018-12-31T06:30:22.000Z,1023.839
2018-12-31T06:40:22.000Z,1023.822
2018-12-31T06:50:22.000Z,1023.916
2018-12-31T07:00:22.000Z,1024.05
2018-12-31T07:10:22.000Z,1024.087
2018-12-31T07:20:22.000Z,1024.178
2018-12-31T07:30:23.000Z,1024.315
2018-12-31T07:40:22.000Z,1024.401
2018-12-31T07:50:22.000Z,1024.524
2018-12-31T08:00:22.000Z,1024.622
2018-12-31T08:10:24.000Z,1024.665
2018-12-31T08:20:22.000Z,1024.83
2018-12-31T08:30:22.000Z,1024.883
2018-12-31T08:40:22.000Z,1024.829
2018-12-31T08:50:22.000Z,1024.936
2018-12-31T09:00:23.000Z,1024.818
2018-12-31T09:10:23.000Z,1024.943
2018-12-31T09:20:23.000Z,1024.977
2018-12-31T09:30:23.000Z,1025.011
2018-12-31T09:40:23.000Z,1024.9
2018-12-31T09:50:23.000Z,1024.924
2018-12-31T10:00:23.000Z,1025.007
2018-12-31T10:10:23.000Z,1024.947
2018-12-31T10:20:23.000Z,1025
2018-12-31T10:30:23.000Z,1025.015
2018-12-31T10:40:23.000Z,1024.917
2018-12-31T10:50:23.000Z,1024.82
2018-12-31T11:00:23.000Z,1024.788
2018-12-31T11:10:23.000Z,1024.751
2018-12-31T11:20:23.000Z,1024.774
2018-12-31T11:30:23.000Z,1024.756
2018-12-31T11:40:23.000Z,1024.673
2018-12-31T11:50:23.000Z,1024.469
2018-12-31T12:00:23.000Z,1024.4
2018-12-31T12:10:23.000Z,1024.369
2018-12-31T12:20:23.000Z,1024.369
2018-12-31T12:30:23.000Z,1024.424
2018-12-31T12:40:23.000Z,1024.418
2018-12-31T12:50:23.000Z,1024.444
2018-12-31T13:00:23.000Z,1024.401
2018-12-31T13:10:23.000Z,1024.327
2018-12-31T13:20:24.000Z,1024.35
2018-12-31T13:30:23.000Z,1024.37
2018-12-31T13:40:23.000Z,1024.461
2018-12-31T13:50:23.000Z,1024.394
2018-12-31T14:00:23.000Z,1024.345
2018-12-31T14:10:23.000Z,1024.401
2018-12-31T14:20:26.000Z,1024.281
2018-12-31T14:30:23.000Z,1024.273
2018-12-31T14:40:23.000Z,1024.293
2018-12-31T14:50:23.000Z,1024.383
2018-12-31T15:00:23.000Z,1024.516
2018-12-31T15:10:23.000Z,1024.616
2018-12-31T15:20:23.000Z,1024.667
2018-12-31T15:30:23.000Z,1024.687
2018-12-31T15:50:23.000Z,1024.522
2018-12-31T16:00:23.000Z,1024.52
2018-12-31T16:10:23.000Z,1024.437
2018-12-31T16:20:25.000Z,1024.49
2018-12-31T16:30:23.000Z,1024.522
2018-12-31T16:40:23.000Z,1024.41
2018-12-31T16:50:23.000Z,1024.372
2018-12-31T17:00:23.000Z,1024.438
2018-12-31T17:10:23.000Z,1024.374
2018-12-31T17:20:24.000Z,1024.311
2018-12-31T17:30:24.000Z,1024.329
2018-12-31T17:40:24.000Z,1024.363
2018-12-31T17:50:24.000Z,1024.424
2018-12-31T18:00:24.000Z,1024.339
2018-12-31T18:10:25.000Z,1024.383
2018-12-31T18:20:24.000Z,1024.48
2018-12-31T18:30:24.000Z,1024.522
2018-12-31T18:40:24.000Z,1024.502
2018-12-31T18:50:24.000Z,1024.606
2018-12-31T19:00:24.000Z,1024.611
2018-12-31T19:10:24.000Z,1024.579
2018-12-31T19:20:24.000Z,1024.532
2018-12-31T19:30:24.000Z,1024.431
2018-12-31T19:40:24.000Z,1024.382
2018-12-31T19:50:24.000Z,1024.182
2018-12-31T20:00:24.000Z,1024.089
2018-12-31T20:10:24.000Z,1024.054
2018-12-31T20:20:24.000Z,1024.019
2018-12-31T20:30:24.000Z,1023.867
2018-12-31T20:40:25.000Z,1023.873
2018-12-31T20:50:24.000Z,1023.784
2018-12-31T21:00:24.000Z,1023.755
2018-12-31T21:10:24.000Z,1023.678
2018-12-31T21:20:24.000Z,1023.557
2018-12-31T21:40:24.000Z,1023.627
2018-12-31T21:50:24.000Z,1023.536
2018-12-31T22:00:24.000Z,1023.553
2018-12-31T22:10:24.000Z,1023.427
2018-12-31T22:20:24.000Z,1023.208
2018-12-31T22:30:24.000Z,1023.092
2018-12-31T22:40:24.000Z,1023.039
2018-12-31T22:50:24.000Z,1022.924
2018-12-31T23:00:24.000Z,1022.969
2018-12-31T23:10:24.000Z,1022.731
2018-12-31T23:20:24.000Z,1022.777
2018-12-31T23:30:24.000Z,1022.783
2018-12-31T23:40:24.000Z,1022.825
2018-12-31T23:50:24.000Z,1022.775
